sensor_id;sensor_type;location;lat;lon;timestamp;P1;durP1;ratioP1;P2;durP2;ratioP2
65936;SDS011;52707;52.086;5.418;2023-03-12T00:01:17;16.23;;;7.00;;
65936;SDS011;52707;52.086;5.418;2023-03-12T00:03:45;16.58;;;6.90;;
65936;SDS011;52707;52.086;5.418;2023-03-12T00:06:12;11.25;;;6.47;;
65936;SDS011;52707;52.086;5.418;2023-03-12T00:08:38;21.80;;;7.07;;
65936;SDS011;52707;52.086;5.418;2023-03-12T00:11:06;16.52;;;7.45;;
65936;SDS011;52707;52.086;5.418;2023-03-12T00:13:32;19.17;;;7.93;;
65936;SDS011;52707;52.086;5.418;2023-03-12T00:16:02;21.10;;;8.85;;
65936;SDS011;52707;52.086;5.418;2023-03-12T00:18:29;13.82;;;6.78;;
65936;SDS011;52707;52.086;5.418;2023-03-12T00:20:55;14.80;;;6.03;;
65936;SDS011;52707;52.086;5.418;2023-03-12T00:23:21;11.75;;;6.47;;
65936;SDS011;52707;52.086;5.418;2023-03-12T00:25:48;12.82;;;7.20;;
65936;SDS011;52707;52.086;5.418;2023-03-12T00:28:14;12.48;;;6.32;;
65936;SDS011;52707;52.086;5.418;2023-03-12T00:30:40;12.65;;;6.53;;
65936;SDS011;52707;52.086;5.418;2023-03-12T00:33:09;12.05;;;6.18;;
65936;SDS011;52707;52.086;5.418;2023-03-12T00:35:38;11.38;;;6.35;;
65936;SDS011;52707;52.086;5.418;2023-03-12T00:38:05;15.90;;;6.68;;
65936;SDS011;52707;52.086;5.418;2023-03-12T00:40:31;15.02;;;6.75;;
65936;SDS011;52707;52.086;5.418;2023-03-12T00:42:57;16.88;;;6.95;;
65936;SDS011;52707;52.086;5.418;2023-03-12T00:45:24;13.13;;;6.85;;
65936;SDS011;52707;52.086;5.418;2023-03-12T00:47:50;16.27;;;6.82;;
65936;SDS011;52707;52.086;5.418;2023-03-12T00:50:16;15.38;;;6.75;;
65936;SDS011;52707;52.086;5.418;2023-03-12T00:52:42;16.20;;;6.45;;
65936;SDS011;52707;52.086;5.418;2023-03-12T00:55:09;11.50;;;5.93;;
65936;SDS011;52707;52.086;5.418;2023-03-12T00:57:35;15.25;;;6.32;;
65936;SDS011;52707;52.086;5.418;2023-03-12T01:00:02;9.65;;;4.53;;
65936;SDS011;52707;52.086;5.418;2023-03-12T01:02:30;16.02;;;5.03;;
65936;SDS011;52707;52.086;5.418;2023-03-12T01:04:56;12.80;;;5.05;;
65936;SDS011;52707;52.086;5.418;2023-03-12T01:07:22;10.27;;;4.68;;
65936;SDS011;52707;52.086;5.418;2023-03-12T01:09:49;13.63;;;4.32;;
65936;SDS011;52707;52.086;5.418;2023-03-12T01:12:15;12.10;;;4.18;;
65936;SDS011;52707;52.086;5.418;2023-03-12T01:14:41;9.20;;;4.18;;
65936;SDS011;52707;52.086;5.418;2023-03-12T01:17:08;7.68;;;3.78;;
65936;SDS011;52707;52.086;5.418;2023-03-12T01:19:34;13.32;;;5.03;;
65936;SDS011;52707;52.086;5.418;2023-03-12T01:22:00;9.50;;;4.75;;
65936;SDS011;52707;52.086;5.418;2023-03-12T01:24:27;7.72;;;4.35;;
65936;SDS011;52707;52.086;5.418;2023-03-12T01:26:53;13.10;;;4.15;;
65936;SDS011;52707;52.086;5.418;2023-03-12T01:29:19;7.65;;;4.07;;
65936;SDS011;52707;52.086;5.418;2023-03-12T01:31:46;10.65;;;4.35;;
65936;SDS011;52707;52.086;5.418;2023-03-12T01:34:12;9.90;;;3.90;;
65936;SDS011;52707;52.086;5.418;2023-03-12T01:36:39;10.63;;;4.85;;
65936;SDS011;52707;52.086;5.418;2023-03-12T01:39:05;6.97;;;3.72;;
65936;SDS011;52707;52.086;5.418;2023-03-12T01:41:32;10.00;;;4.43;;
65936;SDS011;52707;52.086;5.418;2023-03-12T01:43:58;9.68;;;4.00;;
65936;SDS011;52707;52.086;5.418;2023-03-12T01:51:32;11.52;;;4.85;;
65936;SDS011;52707;52.086;5.418;2023-03-12T01:53:59;9.10;;;4.78;;
65936;SDS011;52707;52.086;5.418;2023-03-12T01:56:29;10.38;;;5.35;;
65936;SDS011;52707;52.086;5.418;2023-03-12T01:58:57;11.05;;;4.40;;
65936;SDS011;52707;52.086;5.418;2023-03-12T02:01:25;12.75;;;4.75;;
65936;SDS011;52707;52.086;5.418;2023-03-12T02:03:52;8.48;;;4.18;;
65936;SDS011;52707;52.086;5.418;2023-03-12T02:06:24;8.85;;;4.35;;
65936;SDS011;52707;52.086;5.418;2023-03-12T02:08:51;13.70;;;4.18;;
65936;SDS011;52707;52.086;5.418;2023-03-12T02:11:18;13.07;;;4.18;;
65936;SDS011;52707;52.086;5.418;2023-03-12T02:13:44;12.73;;;4.28;;
65936;SDS011;52707;52.086;5.418;2023-03-12T02:16:10;7.57;;;4.63;;
65936;SDS011;52707;52.086;5.418;2023-03-12T02:18:37;11.15;;;5.05;;
65936;SDS011;52707;52.086;5.418;2023-03-12T02:21:13;16.80;;;4.68;;
65936;SDS011;52707;52.086;5.418;2023-03-12T02:26:16;18.35;;;4.75;;
65936;SDS011;52707;52.086;5.418;2023-03-12T02:28:44;9.20;;;3.83;;
65936;SDS011;52707;52.086;5.418;2023-03-12T02:31:12;7.95;;;4.60;;
65936;SDS011;52707;52.086;5.418;2023-03-12T02:33:39;7.38;;;4.03;;
65936;SDS011;52707;52.086;5.418;2023-03-12T02:36:05;8.05;;;4.00;;
65936;SDS011;52707;52.086;5.418;2023-03-12T02:41:05;12.52;;;4.90;;
65936;SDS011;52707;52.086;5.418;2023-03-12T02:43:33;11.13;;;4.05;;
65936;SDS011;52707;52.086;5.418;2023-03-12T02:45:59;6.40;;;3.50;;
65936;SDS011;52707;52.086;5.418;2023-03-12T02:48:26;13.38;;;4.22;;
65936;SDS011;52707;52.086;5.418;2023-03-12T02:50:52;7.80;;;3.95;;
65936;SDS011;52707;52.086;5.418;2023-03-12T02:53:19;6.97;;;3.28;;
65936;SDS011;52707;52.086;5.418;2023-03-12T02:55:45;7.40;;;3.35;;
65936;SDS011;52707;52.086;5.418;2023-03-12T02:58:11;12.88;;;3.90;;
65936;SDS011;52707;52.086;5.418;2023-03-12T03:00:37;14.40;;;4.22;;
65936;SDS011;52707;52.086;5.418;2023-03-12T03:03:04;7.75;;;3.33;;
65936;SDS011;52707;52.086;5.418;2023-03-12T03:05:30;9.73;;;3.10;;
65936;SDS011;52707;52.086;5.418;2023-03-12T03:07:56;9.60;;;4.38;;
65936;SDS011;52707;52.086;5.418;2023-03-12T03:10:23;8.88;;;3.50;;
65936;SDS011;52707;52.086;5.418;2023-03-12T03:12:49;9.27;;;3.20;;
65936;SDS011;52707;52.086;5.418;2023-03-12T03:15:16;6.32;;;3.10;;
65936;SDS011;52707;52.086;5.418;2023-03-12T03:17:43;8.98;;;4.25;;
65936;SDS011;52707;52.086;5.418;2023-03-12T03:20:09;5.45;;;3.33;;
65936;SDS011;52707;52.086;5.418;2023-03-12T03:22:37;7.38;;;3.08;;
65936;SDS011;52707;52.086;5.418;2023-03-12T03:25:04;6.47;;;3.05;;
65936;SDS011;52707;52.086;5.418;2023-03-12T03:27:31;10.57;;;3.15;;
65936;SDS011;52707;52.086;5.418;2023-03-12T03:29:58;8.40;;;2.95;;
65936;SDS011;52707;52.086;5.418;2023-03-12T03:32:24;10.02;;;3.15;;
65936;SDS011;52707;52.086;5.418;2023-03-12T03:34:50;12.27;;;3.33;;
65936;SDS011;52707;52.086;5.418;2023-03-12T03:37:16;14.13;;;3.20;;
65936;SDS011;52707;52.086;5.418;2023-03-12T03:39:43;6.90;;;2.65;;
65936;SDS011;52707;52.086;5.418;2023-03-12T03:42:09;7.85;;;3.33;;
65936;SDS011;52707;52.086;5.418;2023-03-12T03:44:35;13.40;;;4.00;;
65936;SDS011;52707;52.086;5.418;2023-03-12T03:47:02;7.70;;;2.97;;
65936;SDS011;52707;52.086;5.418;2023-03-12T03:49:28;9.57;;;2.85;;
65936;SDS011;52707;52.086;5.418;2023-03-12T03:51:55;9.93;;;3.10;;
65936;SDS011;52707;52.086;5.418;2023-03-12T03:54:21;10.13;;;3.13;;
65936;SDS011;52707;52.086;5.418;2023-03-12T03:56:48;7.90;;;2.78;;
65936;SDS011;52707;52.086;5.418;2023-03-12T03:59:14;5.65;;;2.85;;
65936;SDS011;52707;52.086;5.418;2023-03-12T04:01:40;8.88;;;2.90;;
65936;SDS011;52707;52.086;5.418;2023-03-12T04:04:06;11.98;;;3.00;;
65936;SDS011;52707;52.086;5.418;2023-03-12T04:06:33;6.88;;;2.38;;
65936;SDS011;52707;52.086;5.418;2023-03-12T04:08:59;5.18;;;2.42;;
65936;SDS011;52707;52.086;5.418;2023-03-12T04:11:26;11.00;;;3.05;;
65936;SDS011;52707;52.086;5.418;2023-03-12T04:13:52;10.20;;;3.30;;
65936;SDS011;52707;52.086;5.418;2023-03-12T04:16:18;5.10;;;2.40;;
65936;SDS011;52707;52.086;5.418;2023-03-12T04:18:45;12.00;;;3.05;;
65936;SDS011;52707;52.086;5.418;2023-03-12T04:21:12;10.68;;;2.88;;
65936;SDS011;52707;52.086;5.418;2023-03-12T04:23:38;8.90;;;4.57;;
65936;SDS011;52707;52.086;5.418;2023-03-12T04:26:05;11.40;;;3.15;;
65936;SDS011;52707;52.086;5.418;2023-03-12T04:28:31;7.18;;;2.80;;
65936;SDS011;52707;52.086;5.418;2023-03-12T04:30:59;9.63;;;3.35;;
65936;SDS011;52707;52.086;5.418;2023-03-12T04:33:29;9.57;;;3.60;;
65936;SDS011;52707;52.086;5.418;2023-03-12T04:35:56;8.68;;;3.75;;
65936;SDS011;52707;52.086;5.418;2023-03-12T04:38:23;16.33;;;4.50;;
65936;SDS011;52707;52.086;5.418;2023-03-12T04:43:28;8.25;;;3.35;;
65936;SDS011;52707;52.086;5.418;2023-03-12T04:45:54;9.77;;;4.05;;
65936;SDS011;52707;52.086;5.418;2023-03-12T04:48:21;8.52;;;4.07;;
65936;SDS011;52707;52.086;5.418;2023-03-12T04:50:47;9.10;;;4.03;;
65936;SDS011;52707;52.086;5.418;2023-03-12T04:53:14;14.48;;;3.92;;
65936;SDS011;52707;52.086;5.418;2023-03-12T04:55:40;11.07;;;4.22;;
65936;SDS011;52707;52.086;5.418;2023-03-12T04:58:07;7.28;;;3.90;;
65936;SDS011;52707;52.086;5.418;2023-03-12T05:00:34;13.32;;;4.05;;
65936;SDS011;52707;52.086;5.418;2023-03-12T05:03:00;6.78;;;4.15;;
65936;SDS011;52707;52.086;5.418;2023-03-12T05:05:27;11.98;;;3.80;;
65936;SDS011;52707;52.086;5.418;2023-03-12T05:07:53;8.73;;;3.78;;
65936;SDS011;52707;52.086;5.418;2023-03-12T05:10:19;11.55;;;5.30;;
65936;SDS011;52707;52.086;5.418;2023-03-12T05:12:46;12.32;;;3.90;;
65936;SDS011;52707;52.086;5.418;2023-03-12T05:15:12;9.43;;;4.50;;
65936;SDS011;52707;52.086;5.418;2023-03-12T05:17:38;7.22;;;3.50;;
65936;SDS011;52707;52.086;5.418;2023-03-12T05:20:05;6.18;;;3.88;;
65936;SDS011;52707;52.086;5.418;2023-03-12T05:22:31;10.13;;;3.95;;
65936;SDS011;52707;52.086;5.418;2023-03-12T05:24:58;9.32;;;3.80;;
65936;SDS011;52707;52.086;5.418;2023-03-12T05:27:24;12.18;;;4.18;;
65936;SDS011;52707;52.086;5.418;2023-03-12T05:29:51;10.23;;;4.30;;
65936;SDS011;52707;52.086;5.418;2023-03-12T05:32:18;16.13;;;5.28;;
65936;SDS011;52707;52.086;5.418;2023-03-12T05:34:44;15.68;;;4.30;;
65936;SDS011;52707;52.086;5.418;2023-03-12T05:37:10;14.45;;;4.00;;
65936;SDS011;52707;52.086;5.418;2023-03-12T05:39:36;8.20;;;4.40;;
65936;SDS011;52707;52.086;5.418;2023-03-12T05:42:03;9.02;;;4.22;;
65936;SDS011;52707;52.086;5.418;2023-03-12T05:44:29;9.57;;;3.70;;
65936;SDS011;52707;52.086;5.418;2023-03-12T05:46:56;14.32;;;3.90;;
65936;SDS011;52707;52.086;5.418;2023-03-12T05:49:24;11.90;;;4.22;;
65936;SDS011;52707;52.086;5.418;2023-03-12T05:51:50;7.00;;;3.45;;
65936;SDS011;52707;52.086;5.418;2023-03-12T05:54:16;11.07;;;4.15;;
65936;SDS011;52707;52.086;5.418;2023-03-12T05:56:43;14.68;;;4.60;;
65936;SDS011;52707;52.086;5.418;2023-03-12T05:59:09;10.98;;;3.92;;
65936;SDS011;52707;52.086;5.418;2023-03-12T06:01:35;9.02;;;3.92;;
65936;SDS011;52707;52.086;5.418;2023-03-12T06:04:02;11.82;;;5.43;;
65936;SDS011;52707;52.086;5.418;2023-03-12T06:06:29;12.55;;;4.03;;
65936;SDS011;52707;52.086;5.418;2023-03-12T06:08:55;11.48;;;3.92;;
65936;SDS011;52707;52.086;5.418;2023-03-12T06:11:21;14.32;;;3.85;;
65936;SDS011;52707;52.086;5.418;2023-03-12T06:13:48;6.80;;;3.95;;
65936;SDS011;52707;52.086;5.418;2023-03-12T06:16:18;9.85;;;3.65;;
65936;SDS011;52707;52.086;5.418;2023-03-12T06:21:15;9.70;;;3.65;;
65936;SDS011;52707;52.086;5.418;2023-03-12T06:23:42;11.15;;;4.57;;
65936;SDS011;52707;52.086;5.418;2023-03-12T06:26:09;14.63;;;4.65;;
65936;SDS011;52707;52.086;5.418;2023-03-12T06:28:35;11.95;;;4.65;;
65936;SDS011;52707;52.086;5.418;2023-03-12T06:31:02;14.40;;;4.93;;
65936;SDS011;52707;52.086;5.418;2023-03-12T06:33:30;13.95;;;6.13;;
65936;SDS011;52707;52.086;5.418;2023-03-12T06:35:57;10.23;;;4.55;;
65936;SDS011;52707;52.086;5.418;2023-03-12T06:38:24;10.88;;;4.40;;
65936;SDS011;52707;52.086;5.418;2023-03-12T06:40:57;9.68;;;4.93;;
65936;SDS011;52707;52.086;5.418;2023-03-12T06:43:24;13.40;;;5.43;;
65936;SDS011;52707;52.086;5.418;2023-03-12T06:45:52;11.45;;;5.03;;
65936;SDS011;52707;52.086;5.418;2023-03-12T06:48:19;17.08;;;5.13;;
65936;SDS011;52707;52.086;5.418;2023-03-12T06:50:45;14.07;;;5.03;;
65936;SDS011;52707;52.086;5.418;2023-03-12T06:53:11;11.60;;;4.97;;
65936;SDS011;52707;52.086;5.418;2023-03-12T06:55:38;10.88;;;5.28;;
65936;SDS011;52707;52.086;5.418;2023-03-12T06:58:04;15.93;;;5.82;;
65936;SDS011;52707;52.086;5.418;2023-03-12T07:00:31;12.18;;;4.90;;
65936;SDS011;52707;52.086;5.418;2023-03-12T07:02:58;17.80;;;6.63;;
65936;SDS011;52707;52.086;5.418;2023-03-12T07:05:24;12.75;;;5.30;;
65936;SDS011;52707;52.086;5.418;2023-03-12T07:07:53;16.33;;;6.13;;
65936;SDS011;52707;52.086;5.418;2023-03-12T07:10:20;15.57;;;5.70;;
65936;SDS011;52707;52.086;5.418;2023-03-12T07:12:46;10.93;;;5.50;;
65936;SDS011;52707;52.086;5.418;2023-03-12T07:15:13;10.15;;;5.90;;
65936;SDS011;52707;52.086;5.418;2023-03-12T07:17:39;16.42;;;5.78;;
65936;SDS011;52707;52.086;5.418;2023-03-12T07:20:06;18.80;;;6.82;;
65936;SDS011;52707;52.086;5.418;2023-03-12T07:22:32;12.73;;;6.57;;
65936;SDS011;52707;52.086;5.418;2023-03-12T07:24:58;10.07;;;6.63;;
65936;SDS011;52707;52.086;5.418;2023-03-12T07:27:25;12.25;;;6.35;;
65936;SDS011;52707;52.086;5.418;2023-03-12T07:29:51;15.35;;;7.05;;
65936;SDS011;52707;52.086;5.418;2023-03-12T07:32:17;23.77;;;7.43;;
65936;SDS011;52707;52.086;5.418;2023-03-12T07:34:44;21.83;;;7.88;;
65936;SDS011;52707;52.086;5.418;2023-03-12T07:37:10;12.00;;;7.25;;
65936;SDS011;52707;52.086;5.418;2023-03-12T07:39:36;15.18;;;7.53;;
65936;SDS011;52707;52.086;5.418;2023-03-12T07:42:03;10.57;;;7.07;;
65936;SDS011;52707;52.086;5.418;2023-03-12T07:44:29;15.80;;;8.88;;
65936;SDS011;52707;52.086;5.418;2023-03-12T07:46:56;14.30;;;8.43;;
65936;SDS011;52707;52.086;5.418;2023-03-12T07:49:22;11.13;;;6.63;;
65936;SDS011;52707;52.086;5.418;2023-03-12T07:51:48;14.45;;;7.28;;
65936;SDS011;52707;52.086;5.418;2023-03-12T07:54:15;20.85;;;8.02;;
65936;SDS011;52707;52.086;5.418;2023-03-12T07:56:42;17.83;;;7.78;;
65936;SDS011;52707;52.086;5.418;2023-03-12T07:59:08;13.65;;;8.02;;
65936;SDS011;52707;52.086;5.418;2023-03-12T08:01:35;13.68;;;7.70;;
65936;SDS011;52707;52.086;5.418;2023-03-12T08:04:01;15.23;;;7.65;;
65936;SDS011;52707;52.086;5.418;2023-03-12T08:06:28;15.23;;;8.25;;
65936;SDS011;52707;52.086;5.418;2023-03-12T08:08:54;15.82;;;7.50;;
65936;SDS011;52707;52.086;5.418;2023-03-12T08:11:21;14.90;;;8.57;;
65936;SDS011;52707;52.086;5.418;2023-03-12T08:13:47;15.07;;;8.85;;
65936;SDS011;52707;52.086;5.418;2023-03-12T08:16:13;14.90;;;8.88;;
65936;SDS011;52707;52.086;5.418;2023-03-12T08:18:40;20.83;;;11.48;;
65936;SDS011;52707;52.086;5.418;2023-03-12T08:21:08;20.52;;;12.35;;
65936;SDS011;52707;52.086;5.418;2023-03-12T08:23:34;18.33;;;9.75;;
65936;SDS011;52707;52.086;5.418;2023-03-12T08:26:00;16.83;;;10.23;;
65936;SDS011;52707;52.086;5.418;2023-03-12T08:28:27;15.65;;;9.68;;
65936;SDS011;52707;52.086;5.418;2023-03-12T08:30:54;22.00;;;10.50;;
65936;SDS011;52707;52.086;5.418;2023-03-12T08:33:20;19.48;;;10.40;;
65936;SDS011;52707;52.086;5.418;2023-03-12T08:35:48;12.65;;;9.05;;
65936;SDS011;52707;52.086;5.418;2023-03-12T08:38:14;20.77;;;10.52;;
65936;SDS011;52707;52.086;5.418;2023-03-12T08:40:40;20.35;;;11.27;;
65936;SDS011;52707;52.086;5.418;2023-03-12T08:43:07;22.08;;;10.75;;
65936;SDS011;52707;52.086;5.418;2023-03-12T08:45:34;18.05;;;10.88;;
65936;SDS011;52707;52.086;5.418;2023-03-12T08:48:02;22.67;;;11.32;;
65936;SDS011;52707;52.086;5.418;2023-03-12T08:50:28;17.25;;;10.85;;
65936;SDS011;52707;52.086;5.418;2023-03-12T08:52:57;16.20;;;11.00;;
65936;SDS011;52707;52.086;5.418;2023-03-12T08:55:24;19.25;;;11.10;;
65936;SDS011;52707;52.086;5.418;2023-03-12T08:57:53;19.50;;;10.68;;
65936;SDS011;52707;52.086;5.418;2023-03-12T09:00:20;19.00;;;10.75;;
65936;SDS011;52707;52.086;5.418;2023-03-12T09:02:46;18.40;;;12.05;;
65936;SDS011;52707;52.086;5.418;2023-03-12T09:05:13;21.00;;;12.43;;
65936;SDS011;52707;52.086;5.418;2023-03-12T09:07:39;19.58;;;11.75;;
65936;SDS011;52707;52.086;5.418;2023-03-12T09:10:06;22.88;;;12.50;;
65936;SDS011;52707;52.086;5.418;2023-03-12T09:12:32;21.67;;;12.00;;
65936;SDS011;52707;52.086;5.418;2023-03-12T09:14:59;25.27;;;13.88;;
65936;SDS011;52707;52.086;5.418;2023-03-12T09:17:30;23.60;;;13.63;;
65936;SDS011;52707;52.086;5.418;2023-03-12T09:19:56;20.40;;;12.77;;
65936;SDS011;52707;52.086;5.418;2023-03-12T09:22:23;21.02;;;13.70;;
65936;SDS011;52707;52.086;5.418;2023-03-12T09:24:49;26.50;;;13.88;;
65936;SDS011;52707;52.086;5.418;2023-03-12T09:27:15;29.42;;;14.82;;
65936;SDS011;52707;52.086;5.418;2023-03-12T09:29:42;26.67;;;14.45;;
65936;SDS011;52707;52.086;5.418;2023-03-12T09:32:25;27.23;;;14.95;;
65936;SDS011;52707;52.086;5.418;2023-03-12T09:34:52;30.85;;;16.90;;
65936;SDS011;52707;52.086;5.418;2023-03-12T09:37:19;34.22;;;17.92;;
65936;SDS011;52707;52.086;5.418;2023-03-12T09:39:49;31.10;;;16.27;;
65936;SDS011;52707;52.086;5.418;2023-03-12T09:42:26;31.48;;;17.10;;
65936;SDS011;52707;52.086;5.418;2023-03-12T09:44:56;32.65;;;17.50;;
65936;SDS011;52707;52.086;5.418;2023-03-12T09:47:27;31.23;;;19.13;;
65936;SDS011;52707;52.086;5.418;2023-03-12T09:50:14;31.83;;;17.15;;
65936;SDS011;52707;52.086;5.418;2023-03-12T09:52:44;35.67;;;19.13;;
65936;SDS011;52707;52.086;5.418;2023-03-12T09:55:14;35.08;;;17.23;;
65936;SDS011;52707;52.086;5.418;2023-03-12T09:57:44;36.65;;;19.98;;
65936;SDS011;52707;52.086;5.418;2023-03-12T10:00:12;47.10;;;23.17;;
65936;SDS011;52707;52.086;5.418;2023-03-12T10:05:21;39.78;;;21.98;;
65936;SDS011;52707;52.086;5.418;2023-03-12T10:07:51;43.97;;;22.23;;
65936;SDS011;52707;52.086;5.418;2023-03-12T10:13:20;35.95;;;21.10;;
65936;SDS011;52707;52.086;5.418;2023-03-12T10:16:01;37.30;;;21.25;;
65936;SDS011;52707;52.086;5.418;2023-03-12T10:31:22;37.60;;;23.23;;
65936;SDS011;52707;52.086;5.418;2023-03-12T10:33:54;39.25;;;22.48;;
65936;SDS011;52707;52.086;5.418;2023-03-12T10:38:50;38.88;;;21.55;;
65936;SDS011;52707;52.086;5.418;2023-03-12T10:41:23;39.83;;;22.98;;
65936;SDS011;52707;52.086;5.418;2023-03-12T10:43:50;37.72;;;21.60;;
65936;SDS011;52707;52.086;5.418;2023-03-12T10:46:28;33.15;;;21.00;;
65936;SDS011;52707;52.086;5.418;2023-03-12T10:54:34;33.80;;;19.60;;
65936;SDS011;52707;52.086;5.418;2023-03-12T10:57:01;35.42;;;20.70;;
65936;SDS011;52707;52.086;5.418;2023-03-12T10:59:29;33.30;;;20.48;;
65936;SDS011;52707;52.086;5.418;2023-03-12T11:01:55;44.97;;;21.65;;
65936;SDS011;52707;52.086;5.418;2023-03-12T11:04:29;43.67;;;22.00;;
65936;SDS011;52707;52.086;5.418;2023-03-12T11:09:28;37.35;;;20.23;;
65936;SDS011;52707;52.086;5.418;2023-03-12T11:11:54;39.67;;;20.65;;
65936;SDS011;52707;52.086;5.418;2023-03-12T11:14:23;49.03;;;19.10;;
65936;SDS011;52707;52.086;5.418;2023-03-12T11:16:50;45.42;;;20.05;;
65936;SDS011;52707;52.086;5.418;2023-03-12T11:19:32;37.58;;;18.08;;
65936;SDS011;52707;52.086;5.418;2023-03-12T11:22:00;48.78;;;16.88;;
65936;SDS011;52707;52.086;5.418;2023-03-12T11:24:26;44.60;;;15.23;;
65936;SDS011;52707;52.086;5.418;2023-03-12T11:26:58;47.08;;;15.30;;
65936;SDS011;52707;52.086;5.418;2023-03-12T11:29:28;47.58;;;16.00;;
65936;SDS011;52707;52.086;5.418;2023-03-12T11:31:58;55.90;;;14.65;;
65936;SDS011;52707;52.086;5.418;2023-03-12T11:34:26;52.45;;;14.65;;
65936;SDS011;52707;52.086;5.418;2023-03-12T11:44:38;48.67;;;12.63;;
65936;SDS011;52707;52.086;5.418;2023-03-12T11:52:41;38.00;;;10.25;;
65936;SDS011;52707;52.086;5.418;2023-03-12T11:58:00;43.42;;;10.20;;
65936;SDS011;52707;52.086;5.418;2023-03-12T12:00:30;51.65;;;11.77;;
65936;SDS011;52707;52.086;5.418;2023-03-12T12:21:11;36.53;;;9.88;;
65936;SDS011;52707;52.086;5.418;2023-03-12T12:23:57;50.25;;;10.18;;
65936;SDS011;52707;52.086;5.418;2023-03-12T12:31:57;56.83;;;9.85;;
65936;SDS011;52707;52.086;5.418;2023-03-12T12:37:36;48.40;;;9.25;;
65936;SDS011;52707;52.086;5.418;2023-03-12T12:39:47;56.88;;;10.40;;
65936;SDS011;52707;52.086;5.418;2023-03-12T12:42:17;45.50;;;9.50;;
65936;SDS011;52707;52.086;5.418;2023-03-12T12:47:12;44.33;;;8.23;;
65936;SDS011;52707;52.086;5.418;2023-03-12T12:50:01;61.85;;;9.05;;
65936;SDS011;52707;52.086;5.418;2023-03-12T12:52:28;51.92;;;9.18;;
65936;SDS011;52707;52.086;5.418;2023-03-12T13:03:03;58.65;;;9.77;;
65936;SDS011;52707;52.086;5.418;2023-03-12T13:08:02;54.08;;;8.82;;
65936;SDS011;52707;52.086;5.418;2023-03-12T13:10:37;51.42;;;9.43;;
65936;SDS011;52707;52.086;5.418;2023-03-12T13:13:17;50.50;;;8.98;;
65936;SDS011;52707;52.086;5.418;2023-03-12T13:18:20;61.95;;;8.23;;
65936;SDS011;52707;52.086;5.418;2023-03-12T13:30:51;51.17;;;9.02;;
65936;SDS011;52707;52.086;5.418;2023-03-12T13:33:18;55.55;;;9.30;;
65936;SDS011;52707;52.086;5.418;2023-03-12T13:35:47;46.15;;;9.40;;
65936;SDS011;52707;52.086;5.418;2023-03-12T13:38:33;51.97;;;10.18;;
65936;SDS011;52707;52.086;5.418;2023-03-12T13:41:00;52.03;;;9.50;;
65936;SDS011;52707;52.086;5.418;2023-03-12T13:46:00;48.95;;;7.75;;
65936;SDS011;52707;52.086;5.418;2023-03-12T13:48:32;69.32;;;11.05;;
65936;SDS011;52707;52.086;5.418;2023-03-12T13:51:09;47.10;;;7.82;;
65936;SDS011;52707;52.086;5.418;2023-03-12T13:53:36;52.25;;;8.90;;
65936;SDS011;52707;52.086;5.418;2023-03-12T13:56:07;50.75;;;8.48;;
65936;SDS011;52707;52.086;5.418;2023-03-12T13:59:12;45.42;;;7.85;;
65936;SDS011;52707;52.086;5.418;2023-03-12T14:01:29;49.25;;;8.10;;
65936;SDS011;52707;52.086;5.418;2023-03-12T14:03:59;35.58;;;7.13;;
65936;SDS011;52707;52.086;5.418;2023-03-12T14:06:27;44.35;;;7.60;;
65936;SDS011;52707;52.086;5.418;2023-03-12T14:09:18;48.33;;;7.95;;
65936;SDS011;52707;52.086;5.418;2023-03-12T14:17:16;41.47;;;6.80;;
65936;SDS011;52707;52.086;5.418;2023-03-12T14:19:45;45.17;;;6.63;;
65936;SDS011;52707;52.086;5.418;2023-03-12T14:22:12;36.15;;;7.35;;
65936;SDS011;52707;52.086;5.418;2023-03-12T14:24:39;41.70;;;6.55;;
65936;SDS011;52707;52.086;5.418;2023-03-12T14:27:11;40.08;;;7.72;;
65936;SDS011;52707;52.086;5.418;2023-03-12T14:29:50;38.20;;;7.40;;
65936;SDS011;52707;52.086;5.418;2023-03-12T14:32:21;41.88;;;7.18;;
65936;SDS011;52707;52.086;5.418;2023-03-12T14:34:50;40.22;;;6.97;;
65936;SDS011;52707;52.086;5.418;2023-03-12T14:37:19;35.15;;;5.93;;
65936;SDS011;52707;52.086;5.418;2023-03-12T14:39:54;45.53;;;7.22;;
65936;SDS011;52707;52.086;5.418;2023-03-12T14:42:32;33.05;;;6.05;;
65936;SDS011;52707;52.086;5.418;2023-03-12T14:45:01;31.50;;;6.85;;
65936;SDS011;52707;52.086;5.418;2023-03-12T14:47:27;43.95;;;8.00;;
65936;SDS011;52707;52.086;5.418;2023-03-12T14:49:54;37.70;;;7.03;;
65936;SDS011;52707;52.086;5.418;2023-03-12T14:52:22;44.78;;;7.30;;
65936;SDS011;52707;52.086;5.418;2023-03-12T14:55:10;35.42;;;6.97;;
65936;SDS011;52707;52.086;5.418;2023-03-12T14:57:37;35.78;;;7.63;;
65936;SDS011;52707;52.086;5.418;2023-03-12T15:00:04;40.67;;;6.72;;
65936;SDS011;52707;52.086;5.418;2023-03-12T15:02:36;27.88;;;6.47;;
65936;SDS011;52707;52.086;5.418;2023-03-12T15:05:02;34.45;;;6.72;;
65936;SDS011;52707;52.086;5.418;2023-03-12T15:07:33;37.05;;;5.85;;
65936;SDS011;52707;52.086;5.418;2023-03-12T15:10:02;37.95;;;7.13;;
65936;SDS011;52707;52.086;5.418;2023-03-12T15:15:00;39.63;;;5.85;;
65936;SDS011;52707;52.086;5.418;2023-03-12T15:17:29;44.25;;;7.32;;
65936;SDS011;52707;52.086;5.418;2023-03-12T15:19:56;43.85;;;6.78;;
65936;SDS011;52707;52.086;5.418;2023-03-12T15:22:23;38.97;;;6.57;;
65936;SDS011;52707;52.086;5.418;2023-03-12T15:24:50;47.55;;;7.65;;
65936;SDS011;52707;52.086;5.418;2023-03-12T15:27:17;30.58;;;5.57;;
65936;SDS011;52707;52.086;5.418;2023-03-12T15:29:44;44.38;;;7.32;;
65936;SDS011;52707;52.086;5.418;2023-03-12T15:32:14;33.40;;;7.10;;
65936;SDS011;52707;52.086;5.418;2023-03-12T15:34:41;35.45;;;5.65;;
65936;SDS011;52707;52.086;5.418;2023-03-12T15:39:57;46.23;;;7.60;;
65936;SDS011;52707;52.086;5.418;2023-03-12T15:42:25;53.72;;;11.73;;
65936;SDS011;52707;52.086;5.418;2023-03-12T15:44:58;39.20;;;6.72;;
65936;SDS011;52707;52.086;5.418;2023-03-12T15:47:28;42.03;;;7.40;;
65936;SDS011;52707;52.086;5.418;2023-03-12T15:49:56;42.90;;;7.82;;
65936;SDS011;52707;52.086;5.418;2023-03-12T15:52:24;47.90;;;7.95;;
65936;SDS011;52707;52.086;5.418;2023-03-12T15:57:43;38.53;;;5.97;;
65936;SDS011;52707;52.086;5.418;2023-03-12T16:02:46;40.17;;;6.50;;
65936;SDS011;52707;52.086;5.418;2023-03-12T16:05:13;34.35;;;5.82;;
65936;SDS011;52707;52.086;5.418;2023-03-12T16:07:40;41.33;;;6.15;;
65936;SDS011;52707;52.086;5.418;2023-03-12T16:10:08;31.95;;;5.38;;
65936;SDS011;52707;52.086;5.418;2023-03-12T16:12:37;36.33;;;7.38;;
65936;SDS011;52707;52.086;5.418;2023-03-12T16:15:03;37.75;;;6.63;;
65936;SDS011;52707;52.086;5.418;2023-03-12T16:17:29;44.08;;;7.47;;
65936;SDS011;52707;52.086;5.418;2023-03-12T16:19:56;46.67;;;7.13;;
65936;SDS011;52707;52.086;5.418;2023-03-12T16:22:22;38.03;;;6.68;;
65936;SDS011;52707;52.086;5.418;2023-03-12T16:24:49;52.15;;;8.93;;
65936;SDS011;52707;52.086;5.418;2023-03-12T16:27:15;43.58;;;6.20;;
65936;SDS011;52707;52.086;5.418;2023-03-12T16:29:56;41.10;;;7.00;;
65936;SDS011;52707;52.086;5.418;2023-03-12T16:32:23;42.15;;;7.18;;
65936;SDS011;52707;52.086;5.418;2023-03-12T16:34:49;49.20;;;7.32;;
65936;SDS011;52707;52.086;5.418;2023-03-12T16:37:16;46.30;;;7.95;;
65936;SDS011;52707;52.086;5.418;2023-03-12T16:39:42;46.83;;;7.63;;
65936;SDS011;52707;52.086;5.418;2023-03-12T16:42:14;37.28;;;7.13;;
65936;SDS011;52707;52.086;5.418;2023-03-12T16:47:11;53.17;;;8.82;;
65936;SDS011;52707;52.086;5.418;2023-03-12T16:49:37;57.85;;;8.05;;
65936;SDS011;52707;52.086;5.418;2023-03-12T16:52:17;56.03;;;8.70;;